^^
Station Historical Data
Daily Summary for September 9, 2017 Units:  Metric    English   Both
« Previous Day
Next Day »
Daily Weekly Monthly Yearly Custom
  High: Low: Average:
Temperature: 33.6 °C 10.7 °C 18.9 °C
Dew Point: 2.6 °C -8.9 °C -1.3 °C
Humidity: 54% 6% 30%
Wind Speed: 22.7km/h -1609.1km/h -11.1km/h
Wind Gust: 32.2km/h - -
Wind- -
Pressure: 1015.1 hPa 1009 hPa -
Precipitation: 0 mm    
Historical Graphs
 
 
Tabular Data for September 9, 2017
Time Temperature Dew Point Pressure Wind Wind Speed Wind Gust Humidity Rainfall Rate (Hourly) solar Conditions
00:12 17.1 °C -4.8 °C 1015.1 hPa North -1609.1 km/h -1607.7 km/h 22% 0 mm meteobridge W/m2
00:17 16.9 °C -4.4 °C 1014.8 hPa Calm     23% 0 mm meteobridge W/m2
00:22 16.7 °C -4.5 °C 1014.8 hPa Calm     23% 0 mm meteobridge W/m2
00:27 16.6 °C -4.6 °C 1014.8 hPa Calm     23% 0 mm meteobridge W/m2
00:32 16.7 °C -4.5 °C 1014.8 hPa Calm     23% 0 mm meteobridge W/m2
00:37 16.6 °C -4.6 °C 1014.8 hPa Calm     23% 0 mm meteobridge W/m2
00:43 16.4 °C -4.8 °C 1014.8 hPa Calm     23% 0 mm meteobridge W/m2
00:53 16.5 °C -4.7 °C 1014.8 hPa Calm     23% 0 mm meteobridge W/m2
00:58 16.3 °C -4.9 °C 1014.8 hPa Calm     23% 0 mm meteobridge W/m2
01:03 16.1 °C -4.5 °C 1014.8 hPa Calm     24% 0 mm meteobridge W/m2
01:09 16 °C -4.6 °C 1014.8 hPa Calm     24% 0 mm meteobridge W/m2
01:14 15.8 °C -4.7 °C 1014.4 hPa Calm     24% 0 mm meteobridge W/m2
01:24 15.7 °C -4.3 °C 1014.4 hPa Calm     25% 0 mm meteobridge W/m2
01:29 15.6 °C -4.4 °C 1014.4 hPa Calm     25% 0 mm meteobridge W/m2
01:34 15.4 °C -4.5 °C 1014.4 hPa Calm     25% 0 mm meteobridge W/m2
01:39 15.3 °C -4.1 °C 1014.4 hPa Calm     26% 0 mm meteobridge W/m2
01:44 15.2 °C -3.7 °C 1014.4 hPa Calm     27% 0 mm meteobridge W/m2
01:49 15.1 °C -2.4 °C 1014.4 hPa Calm     30% 0 mm meteobridge W/m2
01:59 14.8 °C -2.2 °C 1014.4 hPa Calm     31% 0 mm meteobridge W/m2
02:04 14.7 °C -2.3 °C 1014.4 hPa Calm     31% 0 mm meteobridge W/m2
02:09 14.6 °C -2.3 °C 1014.4 hPa Calm     31% 0 mm meteobridge W/m2
02:15 14.4 °C -2.1 °C 1014.4 hPa Calm     32% 0 mm meteobridge W/m2
02:20 14.4 °C -2.1 °C 1014.1 hPa Calm     32% 0 mm meteobridge W/m2
02:25 14.3 °C -1.8 °C 1014.4 hPa Calm     33% 0 mm meteobridge W/m2
02:30 14.3 °C -1.4 °C 1014.1 hPa Calm     34% 0 mm meteobridge W/m2
02:35 14.2 °C -1.1 °C 1014.1 hPa Calm     35% 0 mm meteobridge W/m2
02:40 14.2 °C -0.7 °C 1014.1 hPa Calm     36% 0 mm meteobridge W/m2
02:45 14.2 °C -0.7 °C 1014.1 hPa Calm     36% 0 mm meteobridge W/m2
02:50 14.1 °C 0 °C 1014.1 hPa Calm     38% 0 mm meteobridge W/m2
02:55 14.3 °C 0.2 °C 1014.1 hPa Calm     38% 0 mm meteobridge W/m2
03:01 14.3 °C 0.5 °C 1014.1 hPa Calm     39% 0 mm meteobridge W/m2
03:06 14.2 °C 0.4 °C 1014.1 hPa Calm     39% 0 mm meteobridge W/m2
03:16 14.3 °C 0.9 °C 1014.1 hPa Calm     40% 0 mm meteobridge W/m2
03:21 14.2 °C 0.8 °C 1014.1 hPa Calm     40% 0 mm meteobridge W/m2
03:27 14.1 °C 0.3 °C 1014.1 hPa Calm     39% 0 mm meteobridge W/m2
03:32 13.9 °C 0.5 °C 1013.8 hPa Calm     40% 0 mm meteobridge W/m2
03:37 13.8 °C 1.1 °C 1014.1 hPa Calm     42% 0 mm meteobridge W/m2
03:42 13.8 °C 0.8 °C 1013.8 hPa Calm     41% 0 mm meteobridge W/m2
03:47 13.7 °C 1 °C 1013.8 hPa Calm     42% 0 mm meteobridge W/m2
03:53 13.6 °C 0.9 °C 1013.8 hPa Calm     42% 0 mm meteobridge W/m2
03:58 13.6 °C 1.3 °C 1013.8 hPa Calm     43% 0 mm meteobridge W/m2
04:03 13.7 °C 2 °C 1013.8 hPa Calm     45% 0 mm meteobridge W/m2
04:08 13.7 °C 1.7 °C 1013.8 hPa Calm     44% 0 mm meteobridge W/m2
04:13 13.7 °C 1.7 °C 1013.8 hPa Calm     44% 0 mm meteobridge W/m2
04:18 13.7 °C 1.7 °C 1013.8 hPa Calm     44% 0 mm meteobridge W/m2
04:23 13.7 °C 2 °C 1013.8 hPa Calm     45% 0 mm meteobridge W/m2
04:28 13.7 °C 1.7 °C 1013.8 hPa Calm     44% 0 mm meteobridge W/m2
04:33 13.6 °C 1.9 °C 1013.8 hPa Calm     45% 0 mm meteobridge W/m2
04:39 13.4 °C 2 °C 1013.8 hPa Calm     46% 0 mm meteobridge W/m2
04:44 13.2 °C 2.1 °C 1013.8 hPa Calm     47% 0 mm meteobridge W/m2
04:49 13.1 °C 2.3 °C 1014.1 hPa Calm     48% 0 mm meteobridge W/m2
04:54 12.9 °C 1.9 °C 1014.1 hPa Calm     47% 0 mm meteobridge W/m2
04:59 12.8 °C 1.8 °C 1014.1 hPa Calm     47% 0 mm meteobridge W/m2
05:05 12.7 °C 2.3 °C 1014.1 hPa Calm     49% 0 mm meteobridge W/m2
05:10 12.7 °C 2.3 °C 1014.4 hPa Calm     49% 0 mm meteobridge W/m2
05:20 12.7 °C 2.5 °C 1014.4 hPa Calm     50% 0 mm meteobridge W/m2
05:36 12.5 °C 2.6 °C 1014.4 hPa Calm     51% 0 mm meteobridge W/m2
05:41 12.4 °C 2.3 °C 1014.4 hPa Calm     50% 0 mm meteobridge W/m2
05:46 12.2 °C 1.5 °C 1014.4 hPa Calm     48% 0 mm meteobridge W/m2
05:56 11.8 °C 2 °C 1014.4 hPa Calm     51% 0 mm meteobridge W/m2
06:06 11.6 °C 1.5 °C 1014.4 hPa Calm     50% 0 mm meteobridge W/m2
06:17 11.1 °C 1.1 °C 1014.4 hPa Calm     50% 0 mm meteobridge W/m2
06:22 11 °C 1.8 °C 1014.4 hPa Calm     53% 0 mm meteobridge W/m2
06:28 10.9 °C 0.9 °C 1014.4 hPa Calm     50% 0 mm meteobridge W/m2
06:39 11 °C 2 °C 1014.4 hPa Calm     54% 0 mm meteobridge W/m2
06:44 10.9 °C 1.7 °C 1014.4 hPa Calm     53% 0 mm meteobridge W/m2
06:57 11 °C 1.8 °C 1014.4 hPa Calm     53% 0 mm meteobridge W/m2
07:09 11 °C 1.5 °C 1014.4 hPa Calm     52% 0 mm meteobridge W/m2
07:19 10.7 °C 1.2 °C 1014.8 hPa Calm     52% 0 mm meteobridge W/m2
07:38 10.9 °C 2 °C 1014.8 hPa Calm     54% 0 mm meteobridge W/m2
07:44 11.6 °C 2.1 °C 1014.8 hPa Calm     52% 0 mm meteobridge W/m2
08:00 12.7 °C 2.3 °C 1015.1 hPa Calm     49% 0 mm meteobridge W/m2
08:21 13.6 °C 2.2 °C 1015.1 hPa Calm     46% 0 mm meteobridge W/m2
08:31 14.6 °C 2.5 °C 1015.1 hPa Calm     44% 0 mm meteobridge W/m2
08:41 16.1 °C -0.2 °C 1015.1 hPa Calm     33% 0 mm meteobridge W/m2
08:57 16.8 °C 0.8 °C 1015.1 hPa Calm     34% 0 mm meteobridge W/m2
09:07 18.3 °C 0.9 °C 1014.8 hPa Calm     31% 0 mm meteobridge W/m2
09:28 20.6 °C -0.7 °C 1014.8 hPa Calm   6.4 km/h 24% 0 mm meteobridge W/m2
09:43 22.2 °C -1.2 °C 1014.4 hPa SSW 6.4 km/h 9.7 km/h 21% 0 mm meteobridge W/m2
09:57 23.5 °C -1.5 °C 1014.4 hPa South 9.7 km/h 11.3 km/h 19% 0 mm meteobridge W/m2
10:18 25.5 °C -3 °C 1014.4 hPa South 3.2 km/h 9.7 km/h 15% 0 mm meteobridge W/m2
10:36 26.2 °C -3.4 °C 1014.1 hPa SSW 13 km/h 13 km/h 14% 0 mm meteobridge W/m2
10:46 26.3 °C -3.3 °C 1014.1 hPa SW 11.1 km/h 16.1 km/h 14% 0 mm meteobridge W/m2
10:56 26.6 °C -4.1 °C 1014.1 hPa West 13 km/h 19.3 km/h 13% 0 mm meteobridge W/m2
11:05 26.9 °C -4.9 °C 1014.1 hPa Calm   19.3 km/h 12% 0 mm meteobridge W/m2
11:15 26.9 °C -4.9 °C 1013.8 hPa WNW 6.4 km/h 22.5 km/h 12% 0 mm meteobridge W/m2
11:24 27.2 °C -3.6 °C 1013.8 hPa WNW 13 km/h 20.9 km/h 13% 0 mm meteobridge W/m2
11:29 27.3 °C -4.6 °C 1013.4 hPa WNW 13 km/h 19.3 km/h 12% 0 mm meteobridge W/m2
14:11 31.4 °C -3.9 °C 1010.7 hPa NNW 11.1 km/h 19.3 km/h 10% 0 mm meteobridge W/m2
14:20 31.6 °C -3.7 °C 1010.4 hPa NNW 6.4 km/h 19.3 km/h 10% 0 mm meteobridge W/m2
14:35 31.7 °C -3.7 °C 1010 hPa NNW 1.4 km/h 12.9 km/h 10% 0 mm meteobridge W/m2
14:53 32.3 °C -4.6 °C 1009.7 hPa NNW 14.3 km/h 14.5 km/h 9% 0 mm meteobridge W/m2
15:00 32.1 °C -6.3 °C 1009.7 hPa NNW 11.1 km/h 17.7 km/h 8% 0 mm meteobridge W/m2
15:31 32.3 °C -4.6 °C 1009.4 hPa Calm     9% 0 mm meteobridge W/m2
15:44 32.9 °C -5.7 °C 1009.4 hPa Calm     8% 0 mm meteobridge W/m2
15:51 32.8 °C -5.8 °C 1009.4 hPa NNW 9.7 km/h 11.3 km/h 8% 0 mm meteobridge W/m2
15:57 32.8 °C -5.8 °C 1009.4 hPa NNW 9.7 km/h 11.3 km/h 8% 0 mm meteobridge W/m2
16:06 32.9 °C -7.5 °C 1009.4 hPa NNW 11.1 km/h 14.5 km/h 7% 0 mm meteobridge W/m2
16:29 33.1 °C -5.6 °C 1009.4 hPa Calm   8 km/h 8% 0 mm meteobridge W/m2
16:49 33.2 °C -7.2 °C 1009.4 hPa Calm   14.5 km/h 7% 0 mm meteobridge W/m2
17:02 33.6 °C -8.9 °C 1009 hPa NW 14.3 km/h 25.7 km/h 6% 0 mm meteobridge W/m2
17:29 33.3 °C -5.4 °C 1009.4 hPa WSW 22.7 km/h 32.2 km/h 8% 0 mm meteobridge W/m2
17:52 31.6 °C -2.5 °C 1009.7 hPa SW 13 km/h 20.9 km/h 11% 0 mm meteobridge W/m2
18:18 30.7 °C -2 °C 1010 hPa SW 11.1 km/h 17.7 km/h 12% 0 mm meteobridge W/m2
18:27 29.9 °C -2.6 °C 1010.4 hPa SW 13 km/h 14.5 km/h 12% 0 mm meteobridge W/m2
18:47 28.9 °C -2.3 °C 1010.7 hPa SW 11.1 km/h 11.3 km/h 13% 0 mm meteobridge W/m2
18:57 28 °C -2 °C 1010.7 hPa SW 9.7 km/h 14.5 km/h 14% 0 mm meteobridge W/m2
19:18 27.3 °C -0.7 °C 1011.1 hPa SW 11.1 km/h 16.1 km/h 16% 0 mm meteobridge W/m2
19:28 27.1 °C -0.1 °C 1011.4 hPa SW 7.9 km/h 9.7 km/h 17% 0 mm meteobridge W/m2
19:43 26.3 °C -0.7 °C 1011.7 hPa SW 9.7 km/h 14.5 km/h 17% 0 mm meteobridge W/m2
19:58 26 °C -0.2 °C 1011.7 hPa SW 1.4 km/h 4.8 km/h 18% 0 mm meteobridge W/m2
20:14 25.1 °C -0.1 °C 1011.7 hPa Calm     19% 0 mm meteobridge W/m2
20:29 24.1 °C -0.3 °C 1011.7 hPa Calm     20% 0 mm meteobridge W/m2
20:49 22.8 °C -0.7 °C 1012.4 hPa Calm     21% 0 mm meteobridge W/m2
20:55 21.9 °C -1.4 °C 1012.4 hPa Calm     21% 0 mm meteobridge W/m2
21:16 21.4 °C -1.2 °C 1012.4 hPa Calm     22% 0 mm meteobridge W/m2
21:32 21.3 °C -0.7 °C 1012.4 hPa Calm     23% 0 mm meteobridge W/m2
21:47 20.5 °C -1.3 °C 1012.8 hPa Calm     23% 0 mm meteobridge W/m2
21:58 19.4 °C -1.1 °C 1012.8 hPa Calm     25% 0 mm meteobridge W/m2
Canyon Roadhouse, Fishriver Canyon, Namibia
Compliments of Weather Underground - 2.25 mb